createdAt,value
2022-12-18T00:02:33.195Z,46.3
2022-12-18T00:07:33.141Z,45.8
2022-12-18T00:12:33.132Z,47.1
2022-12-18T00:17:33.136Z,43.4
2022-12-18T00:22:33.138Z,52.1
2022-12-18T00:27:33.134Z,46.5
2022-12-18T00:32:33.148Z,41.9
2022-12-18T00:37:33.197Z,45.9
2022-12-18T00:42:33.147Z,38.3
2022-12-18T00:47:33.160Z,37.6
2022-12-18T00:52:33.139Z,41.8
2022-12-18T00:57:33.149Z,39.5
2022-12-18T01:02:33.279Z,38.2
2022-12-18T01:07:33.188Z,38.9
2022-12-18T01:12:33.151Z,41.6
2022-12-18T01:17:33.156Z,42.9
2022-12-18T01:22:33.160Z,38.9
2022-12-18T01:27:33.151Z,33.3
2022-12-18T01:32:33.164Z,41.1
2022-12-18T01:37:33.147Z,33.5
2022-12-18T01:42:33.175Z,36.2
2022-12-18T01:47:33.156Z,32.7
2022-12-18T01:52:33.153Z,31.9
2022-12-18T01:57:33.154Z,33.3
2022-12-18T02:02:33.226Z,32.9
2022-12-18T02:07:33.152Z,30.0
2022-12-18T02:12:33.149Z,32.0
2022-12-18T02:17:33.158Z,31.3
2022-12-18T02:22:33.161Z,32.5
2022-12-18T02:27:33.163Z,31.2
2022-12-18T02:32:33.151Z,29.1
2022-12-18T02:37:33.171Z,29.1
2022-12-18T02:42:33.157Z,31.8
2022-12-18T02:47:33.159Z,29.9
2022-12-18T02:52:33.153Z,28.4
2022-12-18T02:57:33.162Z,28.9
2022-12-18T03:02:33.260Z,28.2
2022-12-18T03:07:33.158Z,30.7
2022-12-18T03:12:33.170Z,26.1
2022-12-18T03:17:33.158Z,26.1
2022-12-18T03:22:33.154Z,24.2
2022-12-18T03:27:33.159Z,27.2
2022-12-18T03:32:33.162Z,26.4
2022-12-18T03:37:33.159Z,22.9
2022-12-18T03:42:33.202Z,26.5
2022-12-18T03:47:33.164Z,23.4
2022-12-18T03:52:33.165Z,27.5
2022-12-18T03:57:33.165Z,25.3
2022-12-18T04:02:33.231Z,23.3
2022-12-18T04:07:33.165Z,25.8
2022-12-18T04:12:33.171Z,25.0
2022-12-18T04:17:33.173Z,26.0
2022-12-18T04:22:33.165Z,22.2
2022-12-18T04:27:33.171Z,21.3
2022-12-18T04:32:33.171Z,22.5
2022-12-18T04:37:33.169Z,22.4
2022-12-18T04:42:33.173Z,26.3
2022-12-18T04:47:33.168Z,21.7
2022-12-18T04:52:33.247Z,26.1
2022-12-18T04:57:33.179Z,20.7
2022-12-18T05:02:33.297Z,19.9
2022-12-18T05:07:33.275Z,23.9
2022-12-18T05:12:33.180Z,20.6
2022-12-18T05:17:33.178Z,23.8
2022-12-18T05:22:33.183Z,24.5
2022-12-18T05:27:33.280Z,19.8
2022-12-18T05:32:33.180Z,20.5
2022-12-18T05:37:35.866Z,20.9
2022-12-18T05:42:33.175Z,21.7
2022-12-18T05:47:33.187Z,23.8
2022-12-18T05:52:33.181Z,22.6
2022-12-18T05:57:33.178Z,25.4
2022-12-18T06:02:33.282Z,23.9
2022-12-18T06:07:33.195Z,25.0
2022-12-18T06:12:33.187Z,19.7
2022-12-18T06:17:33.188Z,20.8
2022-12-18T06:22:33.190Z,22.5
2022-12-18T06:27:33.199Z,21.1
2022-12-18T06:32:33.189Z,20.4
2022-12-18T06:37:33.189Z,24.2
2022-12-18T06:42:33.292Z,21.1
2022-12-18T06:47:33.199Z,22.4
2022-12-18T06:52:33.209Z,22.2
2022-12-18T06:57:33.193Z,20.6
2022-12-18T07:02:33.289Z,21.7
2022-12-18T07:07:33.202Z,19.8
2022-12-18T07:12:33.369Z,20.1
2022-12-18T07:17:33.233Z,22.3
2022-12-18T07:22:33.201Z,19.7
2022-12-18T07:27:33.204Z,19.2
2022-12-18T07:32:33.206Z,23.3
2022-12-18T07:37:33.209Z,22.2
2022-12-18T07:42:33.206Z,17.4
2022-12-18T07:47:33.210Z,18.6
2022-12-18T07:52:33.223Z,20.7
2022-12-18T07:57:50.528Z,19.9
2022-12-18T08:02:33.328Z,20.6
2022-12-18T08:07:33.219Z,18.1
2022-12-18T08:12:33.218Z,18.3
2022-12-18T08:17:33.216Z,18.0
2022-12-18T08:22:33.318Z,20.4
2022-12-18T08:27:33.217Z,21.5
2022-12-18T08:32:33.223Z,21.6
2022-12-18T08:37:33.480Z,23.0
2022-12-18T08:42:33.229Z,16.2
2022-12-18T08:47:33.242Z,21.9
2022-12-18T08:52:33.236Z,20.3
2022-12-18T08:57:33.226Z,22.2
2022-12-18T09:02:33.557Z,22.2
2022-12-18T09:07:33.225Z,18.6
2022-12-18T09:12:33.241Z,19.7
2022-12-18T09:17:33.318Z,20.5
2022-12-18T09:22:33.231Z,21.0
2022-12-18T09:27:33.239Z,20.0
2022-12-18T09:32:33.231Z,19.1
2022-12-18T09:37:33.613Z,19.7
2022-12-18T09:42:33.253Z,19.3
2022-12-18T09:47:33.258Z,18.2
2022-12-18T09:52:33.244Z,18.8
2022-12-18T09:57:33.240Z,19.2
2022-12-18T10:03:02.566Z,19.7
2022-12-18T10:07:33.256Z,18.4
2022-12-18T10:12:33.257Z,18.7
2022-12-18T10:17:33.250Z,19.3
2022-12-18T10:22:33.254Z,16.2
2022-12-18T10:27:33.248Z,18.9
2022-12-18T10:32:33.294Z,19.3
2022-12-18T10:37:33.265Z,16.4
2022-12-18T10:42:33.253Z,17.7
2022-12-18T10:47:33.256Z,17.9
2022-12-18T10:52:33.260Z,14.1
2022-12-18T10:57:33.264Z,19.2
2022-12-18T11:02:33.423Z,17.0
2022-12-18T11:07:33.265Z,20.6
2022-12-18T11:12:33.268Z,18.5
2022-12-18T11:17:33.270Z,18.2
2022-12-18T11:22:33.271Z,16.3
2022-12-18T11:27:33.270Z,17.8
2022-12-18T11:32:33.290Z,19.8
2022-12-18T11:37:33.276Z,20.2
2022-12-18T11:42:33.276Z,18.1
2022-12-18T11:47:33.307Z,17.7
2022-12-18T11:52:33.280Z,17.6
2022-12-18T11:57:33.285Z,17.2
2022-12-18T12:02:33.359Z,16.9
2022-12-18T12:07:33.289Z,18.8
2022-12-18T12:12:33.283Z,20.0
2022-12-18T12:17:33.292Z,18.4
2022-12-18T12:22:33.287Z,17.4
2022-12-18T12:27:33.286Z,17.1
2022-12-18T12:32:33.290Z,18.2
2022-12-18T12:37:33.355Z,18.7
2022-12-18T12:42:33.286Z,18.0
2022-12-18T12:47:33.294Z,18.1
2022-12-18T12:52:33.313Z,15.2
2022-12-18T12:57:33.322Z,17.4
2022-12-18T13:02:33.374Z,16.8
2022-12-18T13:07:33.297Z,19.9
2022-12-18T13:12:35.369Z,18.9
2022-12-18T13:17:33.311Z,18.7
2022-12-18T13:22:33.306Z,19.3
2022-12-18T13:27:33.321Z,19.0
2022-12-18T13:32:33.304Z,17.6
2022-12-18T13:37:33.444Z,15.1
2022-12-18T13:42:33.324Z,19.7
2022-12-18T13:47:33.309Z,17.6
2022-12-18T13:52:33.316Z,18.0
2022-12-18T13:57:33.316Z,18.7
2022-12-18T14:02:33.450Z,19.9
2022-12-18T14:07:44.959Z,20.0
2022-12-18T14:12:33.747Z,22.2
2022-12-18T14:17:33.322Z,20.7
2022-12-18T14:22:33.314Z,19.4
2022-12-18T14:27:33.314Z,18.3
2022-12-18T14:32:33.329Z,24.5
2022-12-18T14:37:33.323Z,19.1
2022-12-18T14:42:33.323Z,21.5
2022-12-18T14:47:33.375Z,20.5
2022-12-18T14:52:33.367Z,20.9
2022-12-18T14:57:33.330Z,22.5
2022-12-18T15:02:33.493Z,23.2
2022-12-18T15:07:33.325Z,21.1
2022-12-18T15:12:33.327Z,21.2
2022-12-18T15:17:33.335Z,21.4
2022-12-18T15:22:33.331Z,23.6
2022-12-18T15:27:33.331Z,20.3
2022-12-18T15:32:33.899Z,21.9
2022-12-18T15:37:33.334Z,24.6
2022-12-18T15:42:33.340Z,23.6
2022-12-18T15:47:33.332Z,22.2
2022-12-18T15:52:33.343Z,20.4
2022-12-18T15:57:33.346Z,24.4
2022-12-18T16:02:33.635Z,26.8
2022-12-18T16:07:33.340Z,22.5
2022-12-18T16:12:33.336Z,21.2
2022-12-18T16:17:33.346Z,24.4
2022-12-18T16:22:33.477Z,23.1
2022-12-18T16:27:33.347Z,25.4
2022-12-18T16:32:33.349Z,24.5
2022-12-18T16:37:33.371Z,24.9
2022-12-18T16:42:33.349Z,26.4
2022-12-18T16:47:33.357Z,24.8
2022-12-18T16:52:33.370Z,27.6
2022-12-18T16:57:33.349Z,28.2
2022-12-18T17:02:33.747Z,24.5
2022-12-18T17:07:33.356Z,23.8
2022-12-18T17:12:33.360Z,26.8
2022-12-18T17:17:33.359Z,24.1
2022-12-18T17:22:33.362Z,32.0
2022-12-18T17:27:33.354Z,26.6
2022-12-18T17:32:33.360Z,22.8
2022-12-18T17:37:33.355Z,29.0
2022-12-18T17:42:33.365Z,28.9
2022-12-18T17:47:33.356Z,31.1
2022-12-18T17:52:33.355Z,30.1
2022-12-18T17:57:33.362Z,27.6
2022-12-18T18:02:33.561Z,26.1
2022-12-18T18:07:33.365Z,24.9
2022-12-18T18:12:33.363Z,28.0
2022-12-18T18:17:33.381Z,25.1
2022-12-18T18:22:33.371Z,32.1
2022-12-18T18:27:39.061Z,24.6
2022-12-18T18:32:33.370Z,26.6
2022-12-18T18:37:33.374Z,33.4
2022-12-18T18:42:33.403Z,32.5
2022-12-18T18:47:33.379Z,31.5
2022-12-18T18:52:33.379Z,28.3
2022-12-18T18:57:33.380Z,28.3
2022-12-18T19:02:33.580Z,27.9
2022-12-18T19:07:33.379Z,27.4
2022-12-18T19:12:33.383Z,27.1
2022-12-18T19:17:33.422Z,26.2
2022-12-18T19:22:33.386Z,30.1
2022-12-18T19:27:33.391Z,27.5
2022-12-18T19:32:33.496Z,29.5
2022-12-18T19:37:33.393Z,29.1
2022-12-18T19:42:35.832Z,28.2
2022-12-18T19:47:33.390Z,25.2
2022-12-18T19:52:33.393Z,29.4
2022-12-18T19:57:33.401Z,27.7
2022-12-18T20:02:33.640Z,28.8
2022-12-18T20:07:33.393Z,25.7
2022-12-18T20:12:33.420Z,30.6
2022-12-18T20:17:33.400Z,27.8
2022-12-18T20:22:33.401Z,28.9
2022-12-18T20:27:33.406Z,30.9
2022-12-18T20:32:37.432Z,26.8
2022-12-18T20:37:33.407Z,31.8
2022-12-18T20:42:33.408Z,30.3
2022-12-18T20:47:33.409Z,30.1
2022-12-18T20:52:33.416Z,32.9
2022-12-18T20:57:33.409Z,32.1
2022-12-18T21:02:33.733Z,31.7
2022-12-18T21:07:33.408Z,27.2
2022-12-18T21:12:42.768Z,27.4
2022-12-18T21:17:45.002Z,28.8
2022-12-18T21:22:33.413Z,29.6
2022-12-18T21:27:33.414Z,29.9
2022-12-18T21:32:33.792Z,30.7
2022-12-18T21:37:33.428Z,33.5
2022-12-18T21:42:33.425Z,35.1
2022-12-18T21:47:33.530Z,33.2
2022-12-18T21:52:33.433Z,33.8
2022-12-18T21:57:33.423Z,37.8
2022-12-18T22:02:33.591Z,35.2
2022-12-18T22:07:33.427Z,34.6
2022-12-18T22:12:33.435Z,32.8
2022-12-18T22:17:33.435Z,33.3
2022-12-18T22:22:33.426Z,31.3
2022-12-18T22:27:33.437Z,35.1
2022-12-18T22:32:33.429Z,32.4
2022-12-18T22:37:33.435Z,34.9
2022-12-18T22:42:33.436Z,37.0
2022-12-18T22:47:33.441Z,35.3
2022-12-18T22:52:33.434Z,36.9
2022-12-18T22:57:33.434Z,31.1
2022-12-18T23:02:33.583Z,34.5
2022-12-18T23:07:33.443Z,36.6
2022-12-18T23:12:34.707Z,36.5
2022-12-18T23:17:33.448Z,36.3
2022-12-18T23:22:33.442Z,34.7
2022-12-18T23:27:33.444Z,35.8
2022-12-18T23:32:34.191Z,34.8
2022-12-18T23:37:59.138Z,37.6
2022-12-18T23:42:33.515Z,36.7
2022-12-18T23:47:33.451Z,32.3
2022-12-18T23:52:33.470Z,36.4
2022-12-18T23:57:33.451Z,31.9
